Latest Coastal Weather Observations for Parndana

IDS60701

Issued at 9:31 pm CST Saturday 23 May 2015 (issued every 10 minutes, with the page automatically refreshed every 10 minutes)

About coastal observations | Map of coastal stations | Coastal observations for SA | Marine services | Other Formats
Station Details ID: 022843 Name: PARNDANA CFS AWS Lat: -35.79 Lon: 137.25 Height: 165.0 m
Data from the previous 72 hours. | See also: Recent months at Parndana
Date/Time
CST
Temp

°C
Wind Pressure Rain
since 9am
mm
Weather Cloud Vis
km
Sea
Height
m
Swell
Dir
 
Speed
knots
Gust
knots
hPa Trend Height
m
Period
s
Dir
23/09:30pm 7.8 E 5 5 - - 0.0 - - - - - - -
23/09:00pm 8.0 ENE 4 5 - - 0.0 - - - - - - -
23/08:30pm 7.8 E 4 5 - - 0.0 - - - - - - -
23/08:00pm 8.1 ENE 3 4 - - 0.0 - - - - - - -
23/07:30pm 7.7 ENE 4 5 - - 0.0 - - - - - - -
23/07:00pm 8.0 ENE 5 5 - - 0.0 - - - - - - -
23/06:30pm 8.6 ENE 5 6 - - 0.0 - - - - - - -
23/06:00pm 9.0 ENE 5 7 - - 0.0 - - - - - - -
23/05:30pm 9.4 ENE 5 6 - - 0.0 - - - - - - -
23/05:00pm 10.1 ENE 5 6 - - 0.0 - - - - - - -
23/04:30pm 11.1 ENE 5 5 - - 0.0 - - - - - - -
23/04:00pm 12.0 ENE 6 8 - - 0.0 - - - - - - -
23/03:30pm 12.6 NE 5 8 - - 0.0 - - - - - - -
23/03:00pm 12.6 NE 4 6 - - 0.0 - - - - - - -
23/02:30pm 12.5 NE 5 7 - - 0.0 - - - - - - -
23/02:00pm 12.4 NE 6 9 - - 0.0 - - - - - - -
23/01:30pm 12.3 ENE 6 8 - - 0.0 - - - - - - -
23/01:00pm 12.7 ENE 7 10 - - 0.0 - - - - - - -
23/12:30pm 12.5 NE 5 8 - - 0.0 - - - - - - -
23/12:00pm 12.7 NE 6 9 - - 0.0 - - - - - - -
23/11:30am 12.3 E 5 8 - - 0.0 - - - - - - -
23/11:00am 12.0 E 6 9 - - 0.0 - - - - - - -
23/10:30am 11.8 E 6 9 - - 0.0 - - - - - - -
23/10:00am 11.2 E 6 8 - - 0.0 - - - - - - -
23/09:30am 10.6 E 4 5 - - 0.0 - - - - - - -
23/09:00am 10.0 ENE 2 4 - - 1.8 - - - - - - -
23/08:30am 9.3 ENE 2 3 - - 1.8 - - - - - - -
23/08:00am 8.7 ENE 3 4 - - 1.8 - - - - - - -
23/07:30am 8.4 E 5 6 - - 1.8 - - - - - - -
23/07:00am 8.5 ENE 5 7 - - 1.8 - - - - - - -
23/06:30am 8.8 ENE 4 5 - - 1.8 - - - - - - -
23/06:00am 8.9 ESE 4 6 - - 1.8 - - - - - - -
23/05:30am 9.0 E 3 5 - - 1.8 - - - - - - -
23/05:00am 8.8 ESE 4 5 - - 1.8 - - - - - - -
23/04:30am 9.0 E 4 6 - - 1.8 - - - - - - -
23/04:00am 9.1 ENE 3 3 - - 1.8 - - - - - - -
23/03:30am 8.9 E 4 6 - - 1.8 - - - - - - -
23/03:00am 8.7 E 5 7 - - 1.8 - - - - - - -
23/02:30am 8.5 E 6 8 - - 1.8 - - - - - - -
23/02:00am 9.2 ENE 5 7 - - 1.8 - - - - - - -
23/01:30am 9.7 ENE 6 7 - - 1.8 - - - - - - -
23/01:00am 9.9 E 4 5 - - 1.8 - - - - - - -
23/12:30am 9.2 CALM 0 0 - - 1.8 - - - - - - -
23/12:00am 9.3 ESE 4 5 - - 1.8 - - - - - - -
 
Date/Time
CST
Temp

°C
Wind Pressure Rain
since 9am
mm
Weather Cloud Vis
km
Sea
Height
m
Swell
Dir
 
Speed
knots
Gust
knots
hPa Trend Height
m
Period
s
Dir
22/11:30pm 10.1 ESE 4 4 - - 1.8 - - - - - - -
22/11:00pm 10.3 SE 3 4 - - 1.8 - - - - - - -
22/10:30pm 10.5 ESE 5 6 - - 1.8 - - - - - - -
22/10:00pm 10.6 SE 6 8 - - 1.8 - - - - - - -
22/09:30pm 10.8 SE 5 6 - - 1.8 - - - - - - -
22/09:00pm 10.8 E 4 4 - - 1.8 - - - - - - -
22/08:30pm 10.7 SE 3 5 - - 1.8 - - - - - - -
22/08:00pm 11.2 SE 6 8 - - 1.8 - - - - - - -
22/07:30pm 11.0 SE 6 8 - - 1.8 - - - - - - -
22/07:00pm 10.9 SE 4 5 - - 1.8 - - - - - - -
22/06:30pm 11.2 SE 7 8 - - 1.8 - - - - - - -
22/06:00pm 11.4 SSE 5 8 - - 1.8 - - - - - - -
22/05:30pm 11.7 SE 6 10 - - 1.8 - - - - - - -
22/05:00pm 11.7 SE 7 10 - - 1.8 - - - - - - -
22/04:30pm 12.1 SE 8 11 - - 1.8 - - - - - - -
22/04:00pm 12.5 SE 6 8 - - 1.8 - - - - - - -
22/03:30pm 12.7 SE 8 11 - - 1.8 - - - - - - -
22/03:00pm 12.7 ESE 9 11 - - 1.8 - - - - - - -
22/02:30pm 12.9 ESE 8 10 - - 1.8 - - - - - - -
22/02:00pm 12.8 SE 8 11 - - 1.8 - - - - - - -
22/01:30pm 13.0 ESE 8 11 - - 1.8 - - - - - - -
22/01:00pm 12.6 SE 5 9 - - 1.8 - - - - - - -
22/12:30pm 12.9 ESE 7 10 - - 1.8 - - - - - - -
22/12:00pm 12.5 ESE 7 9 - - 1.8 - - - - - - -
22/11:30am 12.1 SE 6 7 - - 1.8 - - - - - - -
22/11:00am 11.5 ESE 6 8 - - 1.8 - - - - - - -
22/10:30am 11.3 ESE 5 7 - - 1.8 - - - - - - -
22/10:00am 11.1 SE 5 7 - - 1.0 - - - - - - -
22/09:30am 10.7 SE 7 11 - - 0.6 - - - - - - -
22/09:00am 10.6 ESE 9 14 - - 2.2 Recent precip. - - - - - -
22/08:30am 10.7 ESE 8 10 - - 2.0 - - - - - - -
22/08:00am 10.2 ESE 7 10 - - 2.0 - - - - - - -
22/07:30am 9.9 SE 6 7 - - 1.8 - - - - - - -
22/07:00am 9.9 SE 5 7 - - 1.8 - - - - - - -
22/06:30am 8.8 SSE 7 9 - - 1.6 - - - - - - -
22/06:00am 9.9 SE 9 13 - - 1.6 Recent precip. - - - - - -
22/05:30am 8.0 SSE 5 7 - - 1.4 - - - - - - -
22/05:00am 7.3 SSW 3 3 - - 1.4 - - - - - - -
22/04:30am 7.1 SSW 2 2 - - 1.4 - - - - - - -
22/04:00am 7.4 SSE 3 5 - - 1.4 - - - - - - -
22/03:30am 8.1 S 4 5 - - 1.4 - - - - - - -
22/03:00am 7.7 S 4 5 - - 1.4 - - - - - - -
22/02:30am 7.3 SSW 4 5 - - 1.4 - - - - - - -
22/02:00am 7.4 SSW 3 3 - - 1.4 - - - - - - -
22/01:30am 7.8 S 3 3 - - 1.4 - - - - - - -
22/01:00am 7.7 S 3 3 - - 1.4 - - - - - - -
22/12:30am 8.2 SSW 3 3 - - 1.4 - - - - - - -
22/12:00am 8.6 SSW 3 4 - - 1.4 - - - - - - -
 
Date/Time
CST
Temp

°C
Wind Pressure Rain
since 9am
mm
Weather Cloud Vis
km
Sea
Height
m
Swell
Dir
 
Speed
knots
Gust
knots
hPa Trend Height
m
Period
s
Dir
21/11:30pm 9.2 SSW 3 3 - - 1.4 - - - - - - -
21/11:00pm 9.0 SSW 3 4 - - 1.4 - - - - - - -
21/10:30pm 9.2 SSW 2 3 - - 1.4 - - - - - - -
21/10:00pm 9.0 S 2 3 - - 1.2 - - - - - - -
21/09:30pm 8.8 SSW 3 4 - - 1.0 - - - - - - -
21/09:00pm 9.0 SSW 2 3 - - 1.0 - - - - - - -
21/08:30pm 9.1 S 3 4 - - 1.0 - - - - - - -
21/08:00pm 9.6 S 4 5 - - 1.0 - - - - - - -
21/07:30pm 9.7 SSW 4 5 - - 1.0 - - - - - - -
21/07:00pm 9.5 S 3 5 - - 0.8 - - - - - - -
21/06:30pm 9.6 SSW 4 6 - - 0.6 - - - - - - -
21/06:00pm 9.8 SSW 5 8 - - 0.6 Recent precip. - - - - - -
21/05:30pm 9.8 SSW 4 5 - - 0.6 - - - - - - -
21/05:00pm 10.9 S 6 9 - - 0.4 - - - - - - -
21/04:30pm 11.5 S 9 13 - - 0.4 - - - - - - -
21/04:00pm 11.8 S 9 12 - - 0.4 - - - - - - -
21/03:30pm 11.2 SSE 7 10 - - 0.4 - - - - - - -
21/03:00pm 12.3 SSE 9 15 - - 0.4 - - - - - - -
21/02:30pm 12.6 SSW 8 12 - - 0.4 - - - - - - -
21/02:00pm 12.2 S 11 16 - - 0.4 - - - - - - -
21/01:30pm 12.6 S 9 12 - - 0.4 - - - - - - -
21/01:00pm 12.1 S 9 13 - - 0.4 - - - - - - -
21/12:30pm 10.8 S 6 8 - - 0.4 - - - - - - -
21/12:00pm 10.2 SSE 14 20 - - 0.2 Rain - - - - - -
21/11:54am 10.8 S 11 20 - - 0.0 - - - - - - -
21/11:30am 11.5 S 6 9 - - 0.0 - - - - - - -
21/11:00am 10.4 S 14 22 - - 0.0 - - - - - - -
21/10:30am 11.1 SSE 8 17 - - 0.0 - - - - - - -
21/10:00am 9.6 SSE 10 14 - - 0.0 - - - - - - -
21/09:30am 10.5 S 5 10 - - 0.0 - - - - - - -
21/09:00am 9.3 SSW 2 3 - - 0.6 - - - - - - -
21/08:30am 8.8 S 3 5 - - 0.6 - - - - - - -
21/08:00am 7.8 SW 2 3 - - 0.6 - - - - - - -
21/07:30am 7.4 S 5 8 - - 0.6 - - - - - - -
21/07:00am 5.9 SE 5 8 - - 0.6 - - - - - - -
21/06:30am 7.5 S 2 3 - - 0.6 - - - - - - -
21/06:00am 6.5 ESE 3 4 - - 0.6 - - - - - - -
21/05:30am 7.0 SW 3 4 - - 0.6 - - - - - - -
21/05:00am 7.3 SSW 3 4 - - 0.6 - - - - - - -
21/04:30am 7.4 S 5 6 - - 0.6 - - - - - - -
21/04:00am 7.7 S 6 9 - - 0.6 - - - - - - -
21/03:30am 8.3 SSW 9 13 - - 0.6 - - - - - - -
21/03:00am 7.9 SSW 7 12 - - 0.6 - - - - - - -
21/02:30am 8.2 S 5 6 - - 0.6 - - - - - - -
21/02:00am 8.2 SSE 6 8 - - 0.6 - - - - - - -
21/01:30am 8.4 S 7 10 - - 0.6 - - - - - - -
21/01:00am 8.7 S 9 12 - - 0.6 - - - - - - -
21/12:30am 8.2 S 9 14 - - 0.4 - - - - - - -
21/12:00am 8.8 S 7 12 - - 0.4 - - - - - - -
 
Date/Time
CST
Temp

°C
Wind Pressure Rain
since 9am
mm
Weather Cloud Vis
km
Sea
Height
m
Swell
Dir
 
Speed
knots
Gust
knots
hPa Trend Height
m
Period
s
Dir
20/11:30pm 8.9 S 11 14 - - 0.4 - - - - - - -
20/11:00pm 8.8 S 12 17 - - 0.4 - - - - - - -
20/10:30pm 8.2 SSW 10 13 - - 0.4 - - - - - - -
20/10:00pm 8.3 SSW 10 12 - - 0.4 - - - - - - -

Other Formats:

Comma delimited format used in spreadsheet applications
http://www.bom.gov.au/fwo/IDS60701/IDS60701.94807.axf

JavaScript Object Notation format (JSON) in row-major order
http://www.bom.gov.au/fwo/IDS60701/IDS60701.94807.json